»·PEaware :: N41598 KPRC-KFLG

N41598 :: KPRC-KFLG

FLIGHT INFORMATION

Flight Status: Arrived
Operator: Privately registered:
United States
More flights under this callsign
Pilot: Alex C. (14758)
Aircraft: BEECH AIRCRAFT BARON
(BE58)
More flights by this aircraft type
Origin: KPRC Love
United States
Destination: KFLG Flagstaff Pulliam
United States
More flights between these airports :: More routes between these airports
Route: +PRC1 DRK
File this flight plan on PilotEdge
Remarks:
Altitude:
(Current/Filed)
11,000ft
Speed:
(Current/Filed)
188kts
Departed: 13-Oct-18 02:08 PM
Arrived: 13-Oct-18 02:48 PM
Distance/Time
Traveled:
47nm/0:40
Distance/Time
To Go:
Arrived

Flight Plot

Page will automatically refresh every two minutes.

Flight plan parsing failed; only flown route is shown


Map Options




Map Legend


Flown Route
Filed Route
Departure Airport
Arrival Airport
Navaid (VOR, NDB)
Fix

Horizontal Profiles

Position Reports

Time Latitude Longitude Heading Altitude Ground
Speed
13-Oct-18 13:54 34.646714 -112.424193 308 5044ft 0kts
13-Oct-18 13:55 34.646714 -112.424193 308 5044ft 0kts
13-Oct-18 13:56 34.646714 -112.424193 308 5044ft 0kts
13-Oct-18 13:57 34.646714 -112.424193 308 5044ft 0kts
13-Oct-18 13:58 34.646714 -112.424193 308 5044ft 0kts
13-Oct-18 13:59 34.646714 -112.424193 308 5044ft 0kts
13-Oct-18 14:00 34.646714 -112.424193 308 5044ft 0kts
13-Oct-18 14:01 34.646714 -112.424193 308 5044ft 0kts
13-Oct-18 14:02 34.646843 -112.424466 293 5044ft 6kts
13-Oct-18 14:03 34.649120 -112.423455 39 5044ft 14kts
13-Oct-18 14:04 34.652331 -112.419986 41 5044ft 16kts
13-Oct-18 14:05 34.655986 -112.416167 41 5044ft 17kts
13-Oct-18 14:06 34.659441 -112.411869 39 5044ft 17kts
13-Oct-18 14:07 34.661172 -112.410097 359 5044ft 0kts
13-Oct-18 14:08 34.661172 -112.410097 359 5044ft 0kts
13-Oct-18 14:09 34.661413 -112.410264 311 5044ft 9kts
13-Oct-18 14:10 34.652734 -112.421983 222 5161ft 130kts
13-Oct-18 14:11 34.624968 -112.446470 210 6939ft 123kts
13-Oct-18 14:12 34.597078 -112.468945 210 8827ft 122kts
13-Oct-18 14:13 34.567493 -112.492034 211 10028ft 148kts
13-Oct-18 14:14 34.527899 -112.522227 211 10022ft 181kts
13-Oct-18 14:15 34.509304 -112.565091 316 10570ft 182kts
13-Oct-18 14:16 34.549899 -112.546009 45 11022ft 191kts
13-Oct-18 14:17 34.595924 -112.514616 18 11019ft 204kts
13-Oct-18 14:18 34.650059 -112.496183 14 11018ft 206kts
13-Oct-18 14:19 34.703878 -112.475106 49 11023ft 203kts
13-Oct-18 14:20 34.736477 -112.419525 57 11018ft 203kts
13-Oct-18 14:21 34.767449 -112.363933 57 11018ft 203kts
13-Oct-18 14:22 34.798395 -112.308228 57 10959ft 206kts
13-Oct-18 14:23 34.829740 -112.251911 56 10945ft 204kts
13-Oct-18 14:24 34.860906 -112.195724 58 10945ft 204kts
13-Oct-18 14:25 34.892417 -112.138403 57 10946ft 204kts
13-Oct-18 14:26 34.924136 -112.080915 57 10950ft 205kts
13-Oct-18 14:27 34.955969 -112.023158 56 10952ft 205kts
13-Oct-18 14:28 34.987839 -111.965239 56 10952ft 206kts
13-Oct-18 14:29 35.018497 -111.909446 55 10948ft 195kts
13-Oct-18 14:30 35.047029 -111.857438 55 11619ft 176kts
13-Oct-18 14:31 35.074038 -111.808163 55 12109ft 178kts
13-Oct-18 14:32 35.101279 -111.758370 55 12280ft 192kts
13-Oct-18 14:33 35.131229 -111.703511 55 12290ft 202kts
13-Oct-18 14:34 35.165917 -111.650073 44 12297ft 204kts
13-Oct-18 14:35 35.205139 -111.599797 44 12300ft 205kts
13-Oct-18 14:36 35.244323 -111.549381 44 12300ft 205kts
13-Oct-18 14:37 35.284263 -111.499848 42 12298ft 201kts
13-Oct-18 14:38 35.316812 -111.447603 81 12304ft 199kts
13-Oct-18 14:39 35.318987 -111.380442 89 12301ft 199kts
13-Oct-18 14:40 35.323960 -111.314778 52 12280ft 199kts
13-Oct-18 14:41 35.352690 -111.335783 254 12300ft 177kts
13-Oct-18 14:42 35.339054 -111.393894 253 12035ft 180kts
13-Oct-18 14:43 35.318870 -111.447287 220 11344ft 179kts
13-Oct-18 14:44 35.283184 -111.488896 226 10726ft 174kts
13-Oct-18 14:45 35.250077 -111.530837 227 9949ft 166kts
13-Oct-18 14:46 35.220896 -111.567960 227 9129ft 143kts
13-Oct-18 14:47 35.196375 -111.599134 226 8465ft 125kts
13-Oct-18 14:48 35.173297 -111.628473 226 7815ft 117kts
13-Oct-18 14:49 35.152439 -111.656116 224 7189ft 99kts
13-Oct-18 14:50 35.139086 -111.671096 274 7014ft 15kts
13-Oct-18 14:51 35.139341 -111.671623 305 7014ft 0kts

Navigation Log

Ident Type
Flight plan parsing failed, navigation log unavailable